sensor_id;sensor_type;location;lat;lon;timestamp;P1;durP1;ratioP1;P2;durP2;ratioP2
4365;SDS011;2196;47.422;9.656;2023-08-06T00:01:54;2.10;;;2.00;;
4365;SDS011;2196;47.422;9.656;2023-08-06T00:04:21;2.67;;;2.57;;
4365;SDS011;2196;47.422;9.656;2023-08-06T00:06:48;3.23;;;2.97;;
4365;SDS011;2196;47.422;9.656;2023-08-06T00:09:15;2.93;;;2.83;;
4365;SDS011;2196;47.422;9.656;2023-08-06T00:11:42;2.97;;;2.80;;
4365;SDS011;2196;47.422;9.656;2023-08-06T00:14:13;3.43;;;3.23;;
4365;SDS011;2196;47.422;9.656;2023-08-06T00:16:42;3.80;;;3.60;;
4365;SDS011;2196;47.422;9.656;2023-08-06T00:19:10;2.90;;;2.70;;
4365;SDS011;2196;47.422;9.656;2023-08-06T00:21:37;3.20;;;2.90;;
4365;SDS011;2196;47.422;9.656;2023-08-06T00:24:04;3.30;;;3.17;;
4365;SDS011;2196;47.422;9.656;2023-08-06T00:26:31;3.27;;;2.57;;
4365;SDS011;2196;47.422;9.656;2023-08-06T00:28:58;2.77;;;2.67;;
4365;SDS011;2196;47.422;9.656;2023-08-06T00:31:26;3.10;;;3.00;;
4365;SDS011;2196;47.422;9.656;2023-08-06T00:33:53;3.00;;;2.57;;
4365;SDS011;2196;47.422;9.656;2023-08-06T00:36:20;3.23;;;3.07;;
4365;SDS011;2196;47.422;9.656;2023-08-06T00:38:47;3.40;;;3.23;;
4365;SDS011;2196;47.422;9.656;2023-08-06T00:41:14;2.80;;;2.70;;
4365;SDS011;2196;47.422;9.656;2023-08-06T00:43:41;2.57;;;2.47;;
4365;SDS011;2196;47.422;9.656;2023-08-06T00:46:08;2.67;;;2.57;;
4365;SDS011;2196;47.422;9.656;2023-08-06T00:48:36;2.10;;;2.10;;
4365;SDS011;2196;47.422;9.656;2023-08-06T00:51:04;2.70;;;2.53;;
4365;SDS011;2196;47.422;9.656;2023-08-06T00:53:31;2.27;;;2.07;;
4365;SDS011;2196;47.422;9.656;2023-08-06T00:55:58;2.77;;;2.67;;
4365;SDS011;2196;47.422;9.656;2023-08-06T00:58:25;2.83;;;2.23;;
4365;SDS011;2196;47.422;9.656;2023-08-06T01:00:52;2.40;;;2.20;;
4365;SDS011;2196;47.422;9.656;2023-08-06T01:03:19;1.93;;;1.93;;
4365;SDS011;2196;47.422;9.656;2023-08-06T01:05:48;2.10;;;1.97;;
4365;SDS011;2196;47.422;9.656;2023-08-06T01:08:18;2.20;;;2.00;;
4365;SDS011;2196;47.422;9.656;2023-08-06T01:10:57;2.80;;;2.60;;
4365;SDS011;2196;47.422;9.656;2023-08-06T01:13:38;1.83;;;1.70;;
4365;SDS011;2196;47.422;9.656;2023-08-06T01:16:11;1.60;;;1.50;;
4365;SDS011;2196;47.422;9.656;2023-08-06T01:18:42;1.80;;;1.70;;
4365;SDS011;2196;47.422;9.656;2023-08-06T01:21:12;1.60;;;1.57;;
4365;SDS011;2196;47.422;9.656;2023-08-06T01:23:40;1.10;;;1.10;;
4365;SDS011;2196;47.422;9.656;2023-08-06T01:26:10;1.80;;;1.80;;
4365;SDS011;2196;47.422;9.656;2023-08-06T01:28:42;1.50;;;1.50;;
4365;SDS011;2196;47.422;9.656;2023-08-06T01:31:15;1.90;;;1.80;;
4365;SDS011;2196;47.422;9.656;2023-08-06T01:33:48;2.07;;;1.97;;
4365;SDS011;2196;47.422;9.656;2023-08-06T01:36:18;3.00;;;2.30;;
4365;SDS011;2196;47.422;9.656;2023-08-06T01:38:46;2.23;;;2.13;;
4365;SDS011;2196;47.422;9.656;2023-08-06T01:41:13;1.63;;;1.63;;
4365;SDS011;2196;47.422;9.656;2023-08-06T01:43:40;2.50;;;2.37;;
4365;SDS011;2196;47.422;9.656;2023-08-06T01:46:07;2.73;;;2.53;;
4365;SDS011;2196;47.422;9.656;2023-08-06T01:48:34;1.80;;;1.70;;
4365;SDS011;2196;47.422;9.656;2023-08-06T01:51:03;1.40;;;1.40;;
4365;SDS011;2196;47.422;9.656;2023-08-06T01:53:31;2.07;;;1.50;;
4365;SDS011;2196;47.422;9.656;2023-08-06T01:55:59;1.90;;;1.80;;
4365;SDS011;2196;47.422;9.656;2023-08-06T01:58:26;2.10;;;2.00;;
4365;SDS011;2196;47.422;9.656;2023-08-06T02:00:53;1.60;;;1.60;;
4365;SDS011;2196;47.422;9.656;2023-08-06T02:03:19;1.40;;;1.40;;
4365;SDS011;2196;47.422;9.656;2023-08-06T02:05:46;1.53;;;1.40;;
4365;SDS011;2196;47.422;9.656;2023-08-06T02:08:13;1.50;;;1.50;;
4365;SDS011;2196;47.422;9.656;2023-08-06T02:10:42;1.17;;;0.97;;
4365;SDS011;2196;47.422;9.656;2023-08-06T02:13:09;1.00;;;1.00;;
4365;SDS011;2196;47.422;9.656;2023-08-06T02:15:35;1.47;;;1.37;;
4365;SDS011;2196;47.422;9.656;2023-08-06T02:18:07;1.20;;;1.20;;
4365;SDS011;2196;47.422;9.656;2023-08-06T02:20:34;1.20;;;1.10;;
4365;SDS011;2196;47.422;9.656;2023-08-06T02:23:01;1.33;;;1.23;;
4365;SDS011;2196;47.422;9.656;2023-08-06T02:25:28;1.30;;;1.30;;
4365;SDS011;2196;47.422;9.656;2023-08-06T02:27:59;1.50;;;1.40;;
4365;SDS011;2196;47.422;9.656;2023-08-06T02:30:26;1.83;;;1.80;;
4365;SDS011;2196;47.422;9.656;2023-08-06T02:32:55;2.73;;;2.57;;
4365;SDS011;2196;47.422;9.656;2023-08-06T02:35:23;1.43;;;1.33;;
4365;SDS011;2196;47.422;9.656;2023-08-06T02:37:50;1.40;;;1.30;;
4365;SDS011;2196;47.422;9.656;2023-08-06T02:40:17;2.00;;;1.87;;
4365;SDS011;2196;47.422;9.656;2023-08-06T02:42:44;2.07;;;1.97;;
4365;SDS011;2196;47.422;9.656;2023-08-06T02:45:12;1.40;;;1.40;;
4365;SDS011;2196;47.422;9.656;2023-08-06T02:47:39;2.13;;;2.03;;
4365;SDS011;2196;47.422;9.656;2023-08-06T02:50:06;2.40;;;2.20;;
4365;SDS011;2196;47.422;9.656;2023-08-06T02:52:34;2.10;;;2.00;;
4365;SDS011;2196;47.422;9.656;2023-08-06T02:55:00;3.60;;;1.53;;
4365;SDS011;2196;47.422;9.656;2023-08-06T02:57:27;2.63;;;1.73;;
4365;SDS011;2196;47.422;9.656;2023-08-06T02:59:54;2.13;;;2.03;;
4365;SDS011;2196;47.422;9.656;2023-08-06T03:02:23;2.53;;;2.10;;
4365;SDS011;2196;47.422;9.656;2023-08-06T03:04:50;2.13;;;2.13;;
4365;SDS011;2196;47.422;9.656;2023-08-06T03:07:17;1.70;;;1.67;;
4365;SDS011;2196;47.422;9.656;2023-08-06T03:09:44;1.33;;;1.23;;
4365;SDS011;2196;47.422;9.656;2023-08-06T03:12:11;2.10;;;2.00;;
4365;SDS011;2196;47.422;9.656;2023-08-06T03:14:38;1.70;;;1.70;;
4365;SDS011;2196;47.422;9.656;2023-08-06T03:17:05;1.97;;;1.87;;
4365;SDS011;2196;47.422;9.656;2023-08-06T03:19:33;2.20;;;2.10;;
4365;SDS011;2196;47.422;9.656;2023-08-06T03:22:00;1.93;;;1.83;;
4365;SDS011;2196;47.422;9.656;2023-08-06T03:24:27;1.80;;;1.70;;
4365;SDS011;2196;47.422;9.656;2023-08-06T03:26:54;2.17;;;2.07;;
4365;SDS011;2196;47.422;9.656;2023-08-06T03:29:21;2.23;;;2.13;;
4365;SDS011;2196;47.422;9.656;2023-08-06T03:31:48;2.30;;;2.13;;
4365;SDS011;2196;47.422;9.656;2023-08-06T03:34:15;25.77;;;2.40;;
4365;SDS011;2196;47.422;9.656;2023-08-06T03:36:43;2.00;;;1.53;;
4365;SDS011;2196;47.422;9.656;2023-08-06T03:39:10;2.07;;;2.00;;
4365;SDS011;2196;47.422;9.656;2023-08-06T03:41:38;2.07;;;1.80;;
4365;SDS011;2196;47.422;9.656;2023-08-06T03:44:06;2.40;;;2.30;;
4365;SDS011;2196;47.422;9.656;2023-08-06T03:46:33;2.00;;;1.70;;
4365;SDS011;2196;47.422;9.656;2023-08-06T03:49:00;2.43;;;2.10;;
4365;SDS011;2196;47.422;9.656;2023-08-06T03:51:27;1.83;;;1.77;;
4365;SDS011;2196;47.422;9.656;2023-08-06T03:53:55;1.93;;;1.83;;
4365;SDS011;2196;47.422;9.656;2023-08-06T03:56:22;1.93;;;1.80;;
4365;SDS011;2196;47.422;9.656;2023-08-06T03:58:49;2.10;;;2.10;;
4365;SDS011;2196;47.422;9.656;2023-08-06T04:01:16;1.83;;;1.73;;
4365;SDS011;2196;47.422;9.656;2023-08-06T04:03:43;2.10;;;2.00;;
4365;SDS011;2196;47.422;9.656;2023-08-06T04:06:10;1.73;;;1.73;;
4365;SDS011;2196;47.422;9.656;2023-08-06T04:08:37;1.73;;;1.50;;
4365;SDS011;2196;47.422;9.656;2023-08-06T04:11:05;2.20;;;2.10;;
4365;SDS011;2196;47.422;9.656;2023-08-06T04:13:32;2.13;;;2.03;;
4365;SDS011;2196;47.422;9.656;2023-08-06T04:16:00;2.37;;;2.27;;
4365;SDS011;2196;47.422;9.656;2023-08-06T04:18:28;2.67;;;1.97;;
4365;SDS011;2196;47.422;9.656;2023-08-06T04:20:55;1.70;;;1.60;;
4365;SDS011;2196;47.422;9.656;2023-08-06T04:23:22;2.20;;;1.97;;
4365;SDS011;2196;47.422;9.656;2023-08-06T04:25:49;5.20;;;2.33;;
4365;SDS011;2196;47.422;9.656;2023-08-06T04:28:18;2.70;;;2.50;;
4365;SDS011;2196;47.422;9.656;2023-08-06T04:30:46;2.57;;;2.47;;
4365;SDS011;2196;47.422;9.656;2023-08-06T04:33:13;2.77;;;2.57;;
4365;SDS011;2196;47.422;9.656;2023-08-06T04:35:40;1.97;;;1.87;;
4365;SDS011;2196;47.422;9.656;2023-08-06T04:38:07;2.10;;;2.00;;
4365;SDS011;2196;47.422;9.656;2023-08-06T04:40:34;2.17;;;1.93;;
4365;SDS011;2196;47.422;9.656;2023-08-06T04:43:01;3.07;;;2.23;;
4365;SDS011;2196;47.422;9.656;2023-08-06T04:45:30;1.80;;;1.80;;
4365;SDS011;2196;47.422;9.656;2023-08-06T04:47:58;2.83;;;2.63;;
4365;SDS011;2196;47.422;9.656;2023-08-06T04:50:25;1.80;;;1.70;;
4365;SDS011;2196;47.422;9.656;2023-08-06T04:52:52;2.13;;;2.03;;
4365;SDS011;2196;47.422;9.656;2023-08-06T04:55:20;2.43;;;1.80;;
4365;SDS011;2196;47.422;9.656;2023-08-06T04:57:47;2.67;;;2.57;;
4365;SDS011;2196;47.422;9.656;2023-08-06T05:00:14;2.33;;;2.23;;
4365;SDS011;2196;47.422;9.656;2023-08-06T05:02:42;5.70;;;2.80;;
4365;SDS011;2196;47.422;9.656;2023-08-06T05:05:09;3.47;;;3.23;;
4365;SDS011;2196;47.422;9.656;2023-08-06T05:07:36;2.53;;;2.43;;
4365;SDS011;2196;47.422;9.656;2023-08-06T05:10:04;9.13;;;2.17;;
4365;SDS011;2196;47.422;9.656;2023-08-06T05:12:31;2.63;;;2.33;;
4365;SDS011;2196;47.422;9.656;2023-08-06T05:14:58;2.30;;;2.20;;
4365;SDS011;2196;47.422;9.656;2023-08-06T05:17:25;2.20;;;2.10;;
4365;SDS011;2196;47.422;9.656;2023-08-06T05:19:54;2.70;;;2.60;;
4365;SDS011;2196;47.422;9.656;2023-08-06T05:22:21;2.70;;;2.60;;
4365;SDS011;2196;47.422;9.656;2023-08-06T05:24:48;2.07;;;1.97;;
4365;SDS011;2196;47.422;9.656;2023-08-06T05:27:15;2.60;;;2.40;;
4365;SDS011;2196;47.422;9.656;2023-08-06T05:29:44;2.97;;;2.87;;
4365;SDS011;2196;47.422;9.656;2023-08-06T05:32:11;2.13;;;2.10;;
4365;SDS011;2196;47.422;9.656;2023-08-06T05:34:38;2.63;;;2.50;;
4365;SDS011;2196;47.422;9.656;2023-08-06T05:37:07;3.60;;;2.10;;
4365;SDS011;2196;47.422;9.656;2023-08-06T05:39:34;3.53;;;2.20;;
4365;SDS011;2196;47.422;9.656;2023-08-06T05:42:01;2.07;;;2.07;;
4365;SDS011;2196;47.422;9.656;2023-08-06T05:44:29;3.03;;;2.83;;
4365;SDS011;2196;47.422;9.656;2023-08-06T05:46:56;3.37;;;2.07;;
4365;SDS011;2196;47.422;9.656;2023-08-06T05:49:23;1.53;;;1.50;;
4365;SDS011;2196;47.422;9.656;2023-08-06T05:51:50;2.63;;;1.97;;
4365;SDS011;2196;47.422;9.656;2023-08-06T05:54:19;1.63;;;1.63;;
4365;SDS011;2196;47.422;9.656;2023-08-06T05:56:46;1.47;;;1.37;;
4365;SDS011;2196;47.422;9.656;2023-08-06T05:59:13;1.23;;;1.23;;
4365;SDS011;2196;47.422;9.656;2023-08-06T06:01:40;1.60;;;1.50;;
4365;SDS011;2196;47.422;9.656;2023-08-06T06:04:07;0.83;;;0.83;;
4365;SDS011;2196;47.422;9.656;2023-08-06T06:06:34;1.87;;;0.80;;
4365;SDS011;2196;47.422;9.656;2023-08-06T06:09:01;0.70;;;0.70;;
4365;SDS011;2196;47.422;9.656;2023-08-06T06:11:29;1.27;;;0.50;;
4365;SDS011;2196;47.422;9.656;2023-08-06T06:13:56;0.57;;;0.57;;
4365;SDS011;2196;47.422;9.656;2023-08-06T06:16:23;0.30;;;0.30;;
4365;SDS011;2196;47.422;9.656;2023-08-06T06:18:50;0.97;;;0.50;;
4365;SDS011;2196;47.422;9.656;2023-08-06T06:21:17;0.30;;;0.20;;
4365;SDS011;2196;47.422;9.656;2023-08-06T06:23:44;1.27;;;0.20;;
4365;SDS011;2196;47.422;9.656;2023-08-06T06:26:12;0.40;;;0.10;;
4365;SDS011;2196;47.422;9.656;2023-08-06T06:28:40;2.10;;;0.20;;
4365;SDS011;2196;47.422;9.656;2023-08-06T06:31:07;0.60;;;0.20;;
4365;SDS011;2196;47.422;9.656;2023-08-06T06:33:34;2.77;;;0.20;;
4365;SDS011;2196;47.422;9.656;2023-08-06T06:36:01;1.30;;;0.20;;
4365;SDS011;2196;47.422;9.656;2023-08-06T06:38:28;0.20;;;0.10;;
4365;SDS011;2196;47.422;9.656;2023-08-06T06:40:56;0.73;;;0.30;;
4365;SDS011;2196;47.422;9.656;2023-08-06T06:43:23;0.47;;;0.23;;
4365;SDS011;2196;47.422;9.656;2023-08-06T06:45:53;0.60;;;0.20;;
4365;SDS011;2196;47.422;9.656;2023-08-06T06:48:23;0.20;;;0.10;;
4365;SDS011;2196;47.422;9.656;2023-08-06T06:50:50;0.10;;;0.10;;
4365;SDS011;2196;47.422;9.656;2023-08-06T06:53:17;0.30;;;0.20;;
4365;SDS011;2196;47.422;9.656;2023-08-06T06:55:44;0.20;;;0.20;;
4365;SDS011;2196;47.422;9.656;2023-08-06T06:58:14;0.40;;;0.20;;
4365;SDS011;2196;47.422;9.656;2023-08-06T07:00:41;0.20;;;0.20;;
4365;SDS011;2196;47.422;9.656;2023-08-06T07:03:10;0.30;;;0.30;;
4365;SDS011;2196;47.422;9.656;2023-08-06T07:05:37;0.50;;;0.50;;
4365;SDS011;2196;47.422;9.656;2023-08-06T07:08:04;1.40;;;0.30;;
4365;SDS011;2196;47.422;9.656;2023-08-06T07:10:31;2.67;;;0.30;;
4365;SDS011;2196;47.422;9.656;2023-08-06T07:12:59;0.20;;;0.20;;
4365;SDS011;2196;47.422;9.656;2023-08-06T07:15:26;1.20;;;0.17;;
4365;SDS011;2196;47.422;9.656;2023-08-06T07:17:56;0.17;;;0.17;;
4365;SDS011;2196;47.422;9.656;2023-08-06T07:20:25;0.40;;;0.40;;
4365;SDS011;2196;47.422;9.656;2023-08-06T07:22:56;0.10;;;0.10;;
4365;SDS011;2196;47.422;9.656;2023-08-06T07:25:23;0.20;;;0.20;;
4365;SDS011;2196;47.422;9.656;2023-08-06T07:27:50;0.20;;;0.20;;
4365;SDS011;2196;47.422;9.656;2023-08-06T07:30:21;0.43;;;0.30;;
4365;SDS011;2196;47.422;9.656;2023-08-06T07:32:48;0.70;;;0.20;;
4365;SDS011;2196;47.422;9.656;2023-08-06T07:35:16;0.30;;;0.30;;
4365;SDS011;2196;47.422;9.656;2023-08-06T07:37:44;0.20;;;0.20;;
4365;SDS011;2196;47.422;9.656;2023-08-06T07:40:11;1.13;;;0.30;;
4365;SDS011;2196;47.422;9.656;2023-08-06T07:42:38;0.20;;;0.20;;
4365;SDS011;2196;47.422;9.656;2023-08-06T07:45:06;0.40;;;0.30;;
4365;SDS011;2196;47.422;9.656;2023-08-06T07:47:34;0.27;;;0.27;;
4365;SDS011;2196;47.422;9.656;2023-08-06T07:50:01;0.20;;;0.20;;
4365;SDS011;2196;47.422;9.656;2023-08-06T07:52:29;0.20;;;0.20;;
4365;SDS011;2196;47.422;9.656;2023-08-06T07:54:57;3.10;;;1.17;;
4365;SDS011;2196;47.422;9.656;2023-08-06T07:57:25;0.40;;;0.20;;
4365;SDS011;2196;47.422;9.656;2023-08-06T07:59:52;0.20;;;0.20;;
4365;SDS011;2196;47.422;9.656;2023-08-06T08:02:19;0.20;;;0.20;;
4365;SDS011;2196;47.422;9.656;2023-08-06T08:04:46;0.43;;;0.20;;
4365;SDS011;2196;47.422;9.656;2023-08-06T08:07:13;1.60;;;0.30;;
4365;SDS011;2196;47.422;9.656;2023-08-06T08:09:40;0.73;;;0.10;;
4365;SDS011;2196;47.422;9.656;2023-08-06T08:12:09;2.20;;;0.10;;
4365;SDS011;2196;47.422;9.656;2023-08-06T08:14:36;0.60;;;0.20;;
4365;SDS011;2196;47.422;9.656;2023-08-06T08:17:03;1.40;;;0.10;;
4365;SDS011;2196;47.422;9.656;2023-08-06T08:19:31;0.40;;;0.10;;
4365;SDS011;2196;47.422;9.656;2023-08-06T08:21:58;0.20;;;0.20;;
4365;SDS011;2196;47.422;9.656;2023-08-06T08:24:25;0.17;;;0.10;;
4365;SDS011;2196;47.422;9.656;2023-08-06T08:26:53;0.20;;;0.20;;
4365;SDS011;2196;47.422;9.656;2023-08-06T08:29:21;0.50;;;0.13;;
4365;SDS011;2196;47.422;9.656;2023-08-06T08:31:49;0.57;;;0.57;;
4365;SDS011;2196;47.422;9.656;2023-08-06T08:34:16;1.53;;;0.10;;
4365;SDS011;2196;47.422;9.656;2023-08-06T08:36:43;0.43;;;0.30;;
4365;SDS011;2196;47.422;9.656;2023-08-06T08:39:12;0.53;;;0.20;;
4365;SDS011;2196;47.422;9.656;2023-08-06T08:41:39;1.30;;;0.40;;
4365;SDS011;2196;47.422;9.656;2023-08-06T08:44:08;0.50;;;0.20;;
4365;SDS011;2196;47.422;9.656;2023-08-06T08:46:37;0.53;;;0.13;;
4365;SDS011;2196;47.422;9.656;2023-08-06T08:49:06;0.10;;;0.10;;
4365;SDS011;2196;47.422;9.656;2023-08-06T08:51:33;0.27;;;0.10;;
4365;SDS011;2196;47.422;9.656;2023-08-06T08:54:02;1.33;;;0.27;;
4365;SDS011;2196;47.422;9.656;2023-08-06T08:56:29;0.87;;;0.10;;
4365;SDS011;2196;47.422;9.656;2023-08-06T08:58:57;1.27;;;0.17;;
4365;SDS011;2196;47.422;9.656;2023-08-06T09:01:24;0.17;;;0.10;;
4365;SDS011;2196;47.422;9.656;2023-08-06T09:03:54;5.10;;;0.97;;
4365;SDS011;2196;47.422;9.656;2023-08-06T09:06:23;0.50;;;0.00;;
4365;SDS011;2196;47.422;9.656;2023-08-06T09:08:54;0.33;;;0.00;;
4365;SDS011;2196;47.422;9.656;2023-08-06T09:11:27;0.37;;;0.00;;
4365;SDS011;2196;47.422;9.656;2023-08-06T09:13:56;0.20;;;0.10;;
4365;SDS011;2196;47.422;9.656;2023-08-06T09:16:24;0.30;;;0.10;;
4365;SDS011;2196;47.422;9.656;2023-08-06T09:18:51;0.00;;;0.00;;
4365;SDS011;2196;47.422;9.656;2023-08-06T09:21:20;1.50;;;0.10;;
4365;SDS011;2196;47.422;9.656;2023-08-06T09:23:47;0.60;;;0.10;;
4365;SDS011;2196;47.422;9.656;2023-08-06T09:26:14;0.53;;;0.07;;
4365;SDS011;2196;47.422;9.656;2023-08-06T09:28:41;1.70;;;0.03;;
4365;SDS011;2196;47.422;9.656;2023-08-06T09:31:08;1.50;;;0.50;;
4365;SDS011;2196;47.422;9.656;2023-08-06T09:33:36;0.33;;;0.10;;
4365;SDS011;2196;47.422;9.656;2023-08-06T09:36:08;0.00;;;0.00;;
4365;SDS011;2196;47.422;9.656;2023-08-06T09:38:39;0.10;;;0.00;;
4365;SDS011;2196;47.422;9.656;2023-08-06T09:41:06;0.00;;;0.00;;
4365;SDS011;2196;47.422;9.656;2023-08-06T09:43:42;0.10;;;0.10;;
4365;SDS011;2196;47.422;9.656;2023-08-06T09:46:13;0.00;;;0.00;;
4365;SDS011;2196;47.422;9.656;2023-08-06T09:48:44;0.00;;;0.00;;
4365;SDS011;2196;47.422;9.656;2023-08-06T09:51:11;0.20;;;0.10;;
4365;SDS011;2196;47.422;9.656;2023-08-06T09:53:41;0.20;;;0.13;;
4365;SDS011;2196;47.422;9.656;2023-08-06T09:56:09;0.77;;;0.00;;
4365;SDS011;2196;47.422;9.656;2023-08-06T09:58:37;0.03;;;0.00;;
4365;SDS011;2196;47.422;9.656;2023-08-06T10:01:05;0.00;;;0.00;;
4365;SDS011;2196;47.422;9.656;2023-08-06T10:03:33;0.10;;;0.00;;
4365;SDS011;2196;47.422;9.656;2023-08-06T10:06:01;0.10;;;0.10;;
4365;SDS011;2196;47.422;9.656;2023-08-06T10:08:32;0.00;;;0.00;;
4365;SDS011;2196;47.422;9.656;2023-08-06T10:11:00;0.10;;;0.10;;
4365;SDS011;2196;47.422;9.656;2023-08-06T10:13:30;0.10;;;0.10;;
4365;SDS011;2196;47.422;9.656;2023-08-06T10:15:59;0.00;;;0.00;;
4365;SDS011;2196;47.422;9.656;2023-08-06T10:18:27;0.60;;;0.00;;
4365;SDS011;2196;47.422;9.656;2023-08-06T10:20:55;0.00;;;0.00;;
4365;SDS011;2196;47.422;9.656;2023-08-06T10:23:27;0.00;;;0.00;;
4365;SDS011;2196;47.422;9.656;2023-08-06T10:26:02;1.03;;;0.00;;
4365;SDS011;2196;47.422;9.656;2023-08-06T10:28:33;0.10;;;0.10;;
4365;SDS011;2196;47.422;9.656;2023-08-06T10:31:02;0.00;;;0.00;;
4365;SDS011;2196;47.422;9.656;2023-08-06T10:33:39;0.00;;;0.00;;
4365;SDS011;2196;47.422;9.656;2023-08-06T10:36:08;0.00;;;0.00;;
4365;SDS011;2196;47.422;9.656;2023-08-06T10:38:36;0.10;;;0.00;;
4365;SDS011;2196;47.422;9.656;2023-08-06T10:41:16;0.07;;;0.00;;
4365;SDS011;2196;47.422;9.656;2023-08-06T10:43:49;0.97;;;0.00;;
4365;SDS011;2196;47.422;9.656;2023-08-06T10:46:26;0.10;;;0.10;;
4365;SDS011;2196;47.422;9.656;2023-08-06T10:48:54;0.03;;;0.03;;
4365;SDS011;2196;47.422;9.656;2023-08-06T10:51:21;0.10;;;0.10;;
4365;SDS011;2196;47.422;9.656;2023-08-06T10:53:49;0.17;;;0.07;;
4365;SDS011;2196;47.422;9.656;2023-08-06T10:56:18;0.00;;;0.00;;
4365;SDS011;2196;47.422;9.656;2023-08-06T10:58:47;0.73;;;0.10;;
4365;SDS011;2196;47.422;9.656;2023-08-06T11:01:15;0.00;;;0.00;;
4365;SDS011;2196;47.422;9.656;2023-08-06T11:03:42;0.00;;;0.00;;
4365;SDS011;2196;47.422;9.656;2023-08-06T11:06:10;0.30;;;0.00;;
4365;SDS011;2196;47.422;9.656;2023-08-06T11:08:46;0.10;;;0.10;;
4365;SDS011;2196;47.422;9.656;2023-08-06T11:11:15;0.13;;;0.00;;
4365;SDS011;2196;47.422;9.656;2023-08-06T11:13:44;0.60;;;0.17;;
4365;SDS011;2196;47.422;9.656;2023-08-06T11:16:12;0.10;;;0.10;;
4365;SDS011;2196;47.422;9.656;2023-08-06T11:18:42;0.23;;;0.10;;
4365;SDS011;2196;47.422;9.656;2023-08-06T11:21:09;1.03;;;0.07;;
4365;SDS011;2196;47.422;9.656;2023-08-06T11:23:37;0.10;;;0.10;;
4365;SDS011;2196;47.422;9.656;2023-08-06T11:26:05;1.13;;;0.10;;
4365;SDS011;2196;47.422;9.656;2023-08-06T11:28:33;0.07;;;0.07;;
4365;SDS011;2196;47.422;9.656;2023-08-06T11:31:01;0.00;;;0.00;;
4365;SDS011;2196;47.422;9.656;2023-08-06T11:33:29;0.00;;;0.00;;
4365;SDS011;2196;47.422;9.656;2023-08-06T11:35:57;0.07;;;0.00;;
4365;SDS011;2196;47.422;9.656;2023-08-06T11:38:24;0.17;;;0.10;;
4365;SDS011;2196;47.422;9.656;2023-08-06T11:40:52;0.33;;;0.17;;
4365;SDS011;2196;47.422;9.656;2023-08-06T11:43:20;0.00;;;0.00;;
4365;SDS011;2196;47.422;9.656;2023-08-06T11:45:49;0.13;;;0.13;;
4365;SDS011;2196;47.422;9.656;2023-08-06T11:48:19;0.10;;;0.10;;
4365;SDS011;2196;47.422;9.656;2023-08-06T11:50:46;0.27;;;0.07;;
4365;SDS011;2196;47.422;9.656;2023-08-06T11:53:13;1.07;;;0.10;;
4365;SDS011;2196;47.422;9.656;2023-08-06T11:55:41;0.93;;;0.10;;
4365;SDS011;2196;47.422;9.656;2023-08-06T11:58:11;1.17;;;0.00;;
4365;SDS011;2196;47.422;9.656;2023-08-06T12:00:38;0.67;;;0.07;;
4365;SDS011;2196;47.422;9.656;2023-08-06T12:03:06;0.93;;;0.00;;
4365;SDS011;2196;47.422;9.656;2023-08-06T12:05:33;0.20;;;0.10;;
4365;SDS011;2196;47.422;9.656;2023-08-06T12:08:01;0.10;;;0.10;;
4365;SDS011;2196;47.422;9.656;2023-08-06T12:10:29;1.80;;;0.10;;
4365;SDS011;2196;47.422;9.656;2023-08-06T12:13:00;0.00;;;0.00;;
4365;SDS011;2196;47.422;9.656;2023-08-06T12:15:29;0.00;;;0.00;;
4365;SDS011;2196;47.422;9.656;2023-08-06T12:17:57;0.00;;;0.00;;
4365;SDS011;2196;47.422;9.656;2023-08-06T12:20:25;0.00;;;0.00;;
4365;SDS011;2196;47.422;9.656;2023-08-06T12:22:54;0.00;;;0.00;;
4365;SDS011;2196;47.422;9.656;2023-08-06T12:25:21;0.40;;;0.00;;
4365;SDS011;2196;47.422;9.656;2023-08-06T12:27:49;0.00;;;0.00;;
4365;SDS011;2196;47.422;9.656;2023-08-06T12:30:16;0.30;;;0.10;;
4365;SDS011;2196;47.422;9.656;2023-08-06T12:32:43;0.20;;;0.20;;
4365;SDS011;2196;47.422;9.656;2023-08-06T12:35:10;0.00;;;0.00;;
4365;SDS011;2196;47.422;9.656;2023-08-06T12:37:40;0.03;;;0.00;;
4365;SDS011;2196;47.422;9.656;2023-08-06T12:40:09;0.10;;;0.07;;
4365;SDS011;2196;47.422;9.656;2023-08-06T12:42:36;0.00;;;0.00;;
4365;SDS011;2196;47.422;9.656;2023-08-06T12:45:03;0.83;;;0.20;;
4365;SDS011;2196;47.422;9.656;2023-08-06T12:47:31;0.00;;;0.00;;
4365;SDS011;2196;47.422;9.656;2023-08-06T12:49:58;0.00;;;0.00;;
4365;SDS011;2196;47.422;9.656;2023-08-06T12:52:25;0.00;;;0.00;;
4365;SDS011;2196;47.422;9.656;2023-08-06T12:54:53;0.10;;;0.10;;
4365;SDS011;2196;47.422;9.656;2023-08-06T12:57:20;0.00;;;0.00;;
4365;SDS011;2196;47.422;9.656;2023-08-06T12:59:47;0.00;;;0.00;;
4365;SDS011;2196;47.422;9.656;2023-08-06T13:02:14;0.17;;;0.00;;
4365;SDS011;2196;47.422;9.656;2023-08-06T13:04:41;0.47;;;0.00;;
4365;SDS011;2196;47.422;9.656;2023-08-06T13:07:08;0.10;;;0.10;;
4365;SDS011;2196;47.422;9.656;2023-08-06T13:09:35;0.10;;;0.03;;
4365;SDS011;2196;47.422;9.656;2023-08-06T13:12:03;0.00;;;0.00;;
4365;SDS011;2196;47.422;9.656;2023-08-06T13:14:31;0.00;;;0.00;;
4365;SDS011;2196;47.422;9.656;2023-08-06T13:16:58;0.20;;;0.20;;
4365;SDS011;2196;47.422;9.656;2023-08-06T13:19:25;0.00;;;0.00;;
4365;SDS011;2196;47.422;9.656;2023-08-06T13:21:58;0.10;;;0.00;;
4365;SDS011;2196;47.422;9.656;2023-08-06T13:24:27;0.00;;;0.00;;
4365;SDS011;2196;47.422;9.656;2023-08-06T13:26:54;0.00;;;0.00;;
4365;SDS011;2196;47.422;9.656;2023-08-06T13:29:22;0.13;;;0.10;;
4365;SDS011;2196;47.422;9.656;2023-08-06T13:31:50;0.00;;;0.00;;
4365;SDS011;2196;47.422;9.656;2023-08-06T13:34:17;0.20;;;0.10;;
4365;SDS011;2196;47.422;9.656;2023-08-06T13:36:44;0.20;;;0.10;;
4365;SDS011;2196;47.422;9.656;2023-08-06T13:39:11;0.00;;;0.00;;
4365;SDS011;2196;47.422;9.656;2023-08-06T13:41:41;1.40;;;0.00;;
4365;SDS011;2196;47.422;9.656;2023-08-06T13:44:08;0.00;;;0.00;;
4365;SDS011;2196;47.422;9.656;2023-08-06T13:46:37;0.30;;;0.10;;
4365;SDS011;2196;47.422;9.656;2023-08-06T13:49:04;0.00;;;0.00;;
4365;SDS011;2196;47.422;9.656;2023-08-06T13:51:31;0.63;;;0.00;;
4365;SDS011;2196;47.422;9.656;2023-08-06T13:53:59;0.57;;;0.00;;
4365;SDS011;2196;47.422;9.656;2023-08-06T13:56:26;0.00;;;0.00;;
4365;SDS011;2196;47.422;9.656;2023-08-06T13:58:54;0.10;;;0.10;;
4365;SDS011;2196;47.422;9.656;2023-08-06T14:01:21;0.10;;;0.10;;
4365;SDS011;2196;47.422;9.656;2023-08-06T14:03:50;0.00;;;0.00;;
4365;SDS011;2196;47.422;9.656;2023-08-06T14:06:18;0.10;;;0.10;;
4365;SDS011;2196;47.422;9.656;2023-08-06T14:08:45;0.10;;;0.10;;
4365;SDS011;2196;47.422;9.656;2023-08-06T14:11:12;0.10;;;0.10;;
4365;SDS011;2196;47.422;9.656;2023-08-06T14:13:39;0.10;;;0.10;;
4365;SDS011;2196;47.422;9.656;2023-08-06T14:16:06;0.10;;;0.10;;
4365;SDS011;2196;47.422;9.656;2023-08-06T14:18:33;0.00;;;0.00;;
4365;SDS011;2196;47.422;9.656;2023-08-06T14:21:04;0.00;;;0.00;;
4365;SDS011;2196;47.422;9.656;2023-08-06T14:23:31;0.00;;;0.00;;
4365;SDS011;2196;47.422;9.656;2023-08-06T14:25:58;0.00;;;0.00;;
4365;SDS011;2196;47.422;9.656;2023-08-06T14:28:25;0.00;;;0.00;;
4365;SDS011;2196;47.422;9.656;2023-08-06T14:30:52;0.00;;;0.00;;
4365;SDS011;2196;47.422;9.656;2023-08-06T14:33:19;0.10;;;0.10;;
4365;SDS011;2196;47.422;9.656;2023-08-06T14:35:46;0.00;;;0.00;;
4365;SDS011;2196;47.422;9.656;2023-08-06T14:38:14;0.10;;;0.10;;
4365;SDS011;2196;47.422;9.656;2023-08-06T14:40:42;3.70;;;0.00;;
4365;SDS011;2196;47.422;9.656;2023-08-06T14:43:09;0.07;;;0.07;;
4365;SDS011;2196;47.422;9.656;2023-08-06T14:45:37;0.00;;;0.00;;
4365;SDS011;2196;47.422;9.656;2023-08-06T14:48:04;0.10;;;0.10;;
4365;SDS011;2196;47.422;9.656;2023-08-06T14:50:31;0.20;;;0.20;;
4365;SDS011;2196;47.422;9.656;2023-08-06T14:52:58;0.20;;;0.10;;
4365;SDS011;2196;47.422;9.656;2023-08-06T14:55:28;0.93;;;0.50;;
4365;SDS011;2196;47.422;9.656;2023-08-06T14:57:55;0.10;;;0.10;;
4365;SDS011;2196;47.422;9.656;2023-08-06T15:00:25;0.30;;;0.30;;
4365;SDS011;2196;47.422;9.656;2023-08-06T15:02:55;1.27;;;0.17;;
4365;SDS011;2196;47.422;9.656;2023-08-06T15:05:22;0.30;;;0.30;;
4365;SDS011;2196;47.422;9.656;2023-08-06T15:07:50;0.10;;;0.10;;
4365;SDS011;2196;47.422;9.656;2023-08-06T15:10:20;0.00;;;0.00;;
4365;SDS011;2196;47.422;9.656;2023-08-06T15:12:48;1.60;;;0.97;;
4365;SDS011;2196;47.422;9.656;2023-08-06T15:15:15;0.10;;;0.10;;
4365;SDS011;2196;47.422;9.656;2023-08-06T15:17:43;0.60;;;0.10;;
4365;SDS011;2196;47.422;9.656;2023-08-06T15:20:10;0.20;;;0.20;;